createdAt,value
2018-03-15T00:01:55.795Z,96623.85
2018-03-15T00:04:32.780Z,96620.56
2018-03-15T00:07:03.833Z,96618.42
2018-03-15T00:09:34.834Z,96623.49
2018-03-15T00:12:05.869Z,96617.67
2018-03-15T00:14:36.907Z,96615.97
2018-03-15T00:17:07.888Z,96621.07
2018-03-15T00:19:38.879Z,96611.92
2018-03-15T00:22:09.901Z,96610.36
2018-03-15T00:24:40.932Z,96611.38
2018-03-15T00:27:11.954Z,96604.75
2018-03-15T00:29:42.955Z,96605.66
2018-03-15T00:32:13.933Z,96604.86
2018-03-15T00:34:44.916Z,96605.84
2018-03-15T00:37:15.928Z,96600.52
2018-03-15T00:39:46.930Z,96596.66
2018-03-15T00:42:17.928Z,96592.55
2018-03-15T00:44:48.954Z,96589.14
2018-03-15T00:47:19.965Z,96585.42
2018-03-15T00:49:50.931Z,96589.10
2018-03-15T00:52:21.914Z,96584.41
2018-03-15T00:54:52.933Z,96579.23
2018-03-15T00:57:23.966Z,96574.64
2018-03-15T00:59:54.935Z,96568.67
2018-03-15T01:02:26.001Z,96554.58
2018-03-15T01:04:57.009Z,96554.69
2018-03-15T01:07:28.024Z,96548.61
2018-03-15T01:09:59.045Z,96540.02
2018-03-15T01:12:30.051Z,96544.81
2018-03-15T01:15:01.071Z,96533.46
2018-03-15T01:17:32.086Z,96524.45
2018-03-15T01:20:03.104Z,96522.88
2018-03-15T01:22:34.104Z,96518.97
2018-03-15T01:25:05.077Z,96517.41
2018-03-15T01:27:36.069Z,96514.38
2018-03-15T01:30:07.046Z,96511.91
2018-03-15T01:32:38.030Z,96513.78
2018-03-15T01:35:09.032Z,96510.06
2018-03-15T01:37:39.978Z,96502.66
2018-03-15T01:40:11.045Z,96503.45
2018-03-15T01:42:42.049Z,96498.75
2018-03-15T01:45:13.085Z,96485.17
2018-03-15T01:47:44.076Z,96477.19
2018-03-15T01:50:15.084Z,96479.50
2018-03-15T01:52:46.093Z,96469.21
2018-03-15T01:55:17.078Z,96462.84
2018-03-15T01:57:48.070Z,96462.71
2018-03-15T02:00:19.047Z,96460.57
2018-03-15T02:02:50.048Z,96462.48
2018-03-15T02:05:21.092Z,96464.08
2018-03-15T02:07:52.093Z,96463.11
2018-03-15T02:10:23.102Z,96457.80
2018-03-15T02:12:54.096Z,96459.67
2018-03-15T02:15:25.082Z,96457.58
2018-03-15T02:17:56.072Z,96451.70
2018-03-15T02:20:27.065Z,96450.00
2018-03-15T02:22:58.059Z,96445.41
2018-03-15T02:25:29.036Z,96447.36
2018-03-15T02:28:00.038Z,96445.55
2018-03-15T02:30:31.042Z,96439.77
2018-03-15T02:33:02.032Z,96441.00
2018-03-15T02:35:33.028Z,96444.17
2018-03-15T02:38:04.002Z,96443.71
2018-03-15T02:40:35.046Z,96449.88
2018-03-15T02:43:06.045Z,96446.27
2018-03-15T02:45:37.042Z,96450.17
2018-03-15T02:48:14.883Z,96451.15
2018-03-15T02:50:45.902Z,96445.88
2018-03-15T02:53:16.901Z,96455.96
2018-03-15T02:55:47.890Z,96445.60
2018-03-15T02:58:18.884Z,96446.86
2018-03-15T03:00:49.906Z,96451.48
2018-03-15T03:03:20.874Z,96446.42
2018-03-15T03:05:52.274Z,96442.45
2018-03-15T03:08:23.284Z,96437.32
2018-03-15T03:10:54.337Z,96434.83
2018-03-15T03:13:25.331Z,96442.78
2018-03-15T03:15:56.340Z,96438.48
2018-03-15T03:18:27.299Z,96437.55
2018-03-15T03:20:58.309Z,96434.94
2018-03-15T03:23:29.315Z,96433.46
2018-03-15T03:26:00.321Z,96438.15
2018-03-15T03:28:31.335Z,96430.48
2018-03-15T03:31:02.358Z,96434.16
2018-03-15T03:33:33.365Z,96427.88
2018-03-15T03:36:04.347Z,96429.17
2018-03-15T03:38:35.374Z,96432.05
2018-03-15T03:41:06.393Z,96432.59
2018-03-15T03:43:37.376Z,96426.09
2018-03-15T03:46:08.389Z,96423.85
2018-03-15T03:48:39.392Z,96424.18
2018-03-15T03:51:10.358Z,96425.59
2018-03-15T03:53:41.354Z,96431.58
2018-03-15T03:56:12.305Z,96427.79
2018-03-15T03:58:43.273Z,96425.98
2018-03-15T04:01:14.250Z,96429.81
2018-03-15T04:03:45.244Z,96428.06
2018-03-15T04:06:16.259Z,96419.65
2018-03-15T04:08:47.281Z,96397.27
2018-03-15T04:11:18.277Z,96397.00
2018-03-15T04:13:49.306Z,96402.56
2018-03-15T04:16:20.274Z,96401.56
2018-03-15T04:18:51.314Z,96393.48
2018-03-15T04:21:22.321Z,96393.84
2018-03-15T04:23:53.324Z,96390.94
2018-03-15T04:26:24.314Z,96388.46
2018-03-15T04:28:55.315Z,96380.52
2018-03-15T04:31:26.319Z,96379.45
2018-03-15T04:33:57.297Z,96369.73
2018-03-15T04:36:28.261Z,96367.73
2018-03-15T04:38:59.246Z,96366.36
2018-03-15T04:41:30.304Z,96357.03
2018-03-15T04:44:01.311Z,96358.05
2018-03-15T04:46:32.310Z,96353.53
2018-03-15T04:49:03.303Z,96356.20
2018-03-15T04:51:34.305Z,96358.68
2018-03-15T04:54:05.283Z,96353.89
2018-03-15T04:56:36.272Z,96354.23
2018-03-15T04:59:07.258Z,96357.92
2018-03-15T05:01:38.283Z,96356.32
2018-03-15T05:04:09.294Z,96356.19
2018-03-15T05:06:40.293Z,96362.44
2018-03-15T05:09:11.268Z,96355.81
2018-03-15T05:11:42.310Z,96344.35
2018-03-15T05:14:13.279Z,96342.00
2018-03-15T05:16:44.286Z,96339.15
2018-03-15T05:19:15.269Z,96343.77
2018-03-15T05:21:46.265Z,96338.33
2018-03-15T05:24:17.265Z,96339.52
2018-03-15T05:26:48.265Z,96333.34
2018-03-15T05:29:19.253Z,96328.39
2018-03-15T05:31:50.283Z,96330.40
2018-03-15T05:34:21.309Z,96328.73
2018-03-15T05:36:52.280Z,96333.77
2018-03-15T05:39:23.305Z,96338.27
2018-03-15T05:41:54.300Z,96337.90
2018-03-15T05:44:25.339Z,96339.59
2018-03-15T05:46:56.332Z,96346.91
2018-03-15T05:49:27.355Z,96349.06
2018-03-15T05:51:58.355Z,96347.83
2018-03-15T05:54:29.317Z,96343.86
2018-03-15T05:57:00.271Z,96335.44
2018-03-15T05:59:31.264Z,96335.94
2018-03-15T06:02:02.424Z,96329.02
2018-03-15T06:04:33.398Z,96328.24
2018-03-15T06:07:04.378Z,96325.23
2018-03-15T06:09:35.412Z,96327.89
2018-03-15T06:12:06.413Z,96320.37
2018-03-15T06:14:37.374Z,96311.25
2018-03-15T06:17:08.334Z,96306.80
2018-03-15T06:19:39.300Z,96300.42
2018-03-15T06:22:10.282Z,96310.95
2018-03-15T06:24:41.284Z,96307.96
2018-03-15T06:27:12.259Z,96299.11
2018-03-15T06:29:43.224Z,96285.87
2018-03-15T06:32:14.210Z,96284.61
2018-03-15T06:34:45.240Z,96278.56
2018-03-15T06:37:16.245Z,96272.82
2018-03-15T06:39:47.219Z,96271.25
2018-03-15T06:42:18.209Z,96267.04
2018-03-15T06:44:49.214Z,96276.94
2018-03-15T06:47:20.202Z,96276.28
2018-03-15T06:49:51.175Z,96268.33
2018-03-15T06:52:22.184Z,96259.03
2018-03-15T06:54:53.161Z,96251.52
2018-03-15T06:57:24.156Z,96245.66
2018-03-15T06:59:55.138Z,96246.78
2018-03-15T07:02:26.099Z,96261.32
2018-03-15T07:04:57.086Z,96263.72
2018-03-15T07:07:28.053Z,96273.66
2018-03-15T07:09:59.074Z,96269.17
2018-03-15T07:12:30.077Z,96264.42
2018-03-15T07:15:01.087Z,96260.42
2018-03-15T07:17:32.116Z,96254.58
2018-03-15T07:20:03.145Z,96241.02
2018-03-15T07:22:34.147Z,96244.29
2018-03-15T07:25:05.101Z,96251.27
2018-03-15T07:27:36.126Z,96235.81
2018-03-15T07:30:07.133Z,96237.56
2018-03-15T07:32:38.211Z,96233.88
2018-03-15T07:35:09.204Z,96231.95
2018-03-15T07:37:40.276Z,96229.48
2018-03-15T07:40:11.264Z,96224.91
2018-03-15T07:42:42.256Z,96220.70
2018-03-15T07:45:13.264Z,96225.30
2018-03-15T07:47:44.275Z,96222.69
2018-03-15T07:50:15.284Z,96225.67
2018-03-15T07:52:46.295Z,96216.09
2018-03-15T07:55:17.300Z,96208.60
2018-03-15T07:57:48.365Z,96196.51
2018-03-15T08:00:19.407Z,96196.31
2018-03-15T08:02:50.396Z,96189.63
2018-03-15T08:05:21.403Z,96181.02
2018-03-15T08:07:52.398Z,96185.70
2018-03-15T08:10:23.437Z,96185.53
2018-03-15T08:12:54.396Z,96186.84
2018-03-15T08:15:25.339Z,96191.13
2018-03-15T08:17:56.351Z,96195.44
2018-03-15T08:20:27.335Z,96179.22
2018-03-15T08:22:58.331Z,96165.68
2018-03-15T08:25:29.305Z,96164.89
2018-03-15T08:28:00.332Z,96171.05
2018-03-15T08:30:31.315Z,96170.88
2018-03-15T08:33:02.365Z,96168.33
2018-03-15T08:35:33.381Z,96164.52
2018-03-15T08:38:05.222Z,96156.29
2018-03-15T08:40:36.229Z,96152.40
2018-03-15T08:43:07.267Z,96158.99
2018-03-15T08:45:38.298Z,96163.88
2018-03-15T08:48:09.337Z,96163.92
2018-03-15T08:50:40.374Z,96169.12
2018-03-15T08:53:11.386Z,96162.58
2018-03-15T08:55:42.408Z,96164.34
2018-03-15T08:58:13.350Z,96151.81
2018-03-15T09:00:44.373Z,96149.74
2018-03-15T09:03:15.381Z,96143.84
2018-03-15T09:05:46.390Z,96145.19
2018-03-15T09:08:17.450Z,96146.50
2018-03-15T09:10:48.461Z,96136.06
2018-03-15T09:13:19.470Z,96141.73
2018-03-15T09:15:50.478Z,96131.68
2018-03-15T09:18:21.466Z,96135.84
2018-03-15T09:20:52.520Z,96132.39
2018-03-15T09:23:23.553Z,96122.77
2018-03-15T09:25:54.550Z,96118.11
2018-03-15T09:28:25.566Z,96107.97
2018-03-15T09:30:56.566Z,96113.44
2018-03-15T09:33:27.607Z,96109.28
2018-03-15T09:35:58.601Z,96107.88
2018-03-15T09:38:29.628Z,96103.25
2018-03-15T09:41:00.638Z,96100.13
2018-03-15T09:43:31.598Z,96097.83
2018-03-15T09:46:02.735Z,96089.72
2018-03-15T09:48:33.704Z,96090.00
2018-03-15T09:51:04.717Z,96080.37
2018-03-15T09:53:35.821Z,96066.44
2018-03-15T09:56:06.846Z,96057.73
2018-03-15T09:58:37.837Z,96048.30
2018-03-15T10:01:08.901Z,96033.77
2018-03-15T10:03:39.906Z,96033.47
2018-03-15T10:06:10.940Z,96025.69
2018-03-15T10:08:41.940Z,96021.02
2018-03-15T10:11:13.003Z,96012.50
2018-03-15T10:13:43.974Z,96001.17
2018-03-15T10:16:15.018Z,95995.02
2018-03-15T10:18:46.056Z,95985.94
2018-03-15T10:21:17.068Z,95987.38
2018-03-15T10:23:48.102Z,95986.19
2018-03-15T10:26:19.153Z,95965.88
2018-03-15T10:28:50.179Z,95974.05
2018-03-15T10:31:21.140Z,95969.83
2018-03-15T10:33:52.159Z,95962.02
2018-03-15T10:36:23.143Z,95959.09
2018-03-15T10:38:54.143Z,95959.08
2018-03-15T10:41:25.152Z,95970.46
2018-03-15T10:43:56.137Z,95973.14
2018-03-15T10:46:27.131Z,95960.66
2018-03-15T10:48:58.143Z,95959.05
2018-03-15T10:51:29.140Z,95951.26
2018-03-15T10:54:00.158Z,95957.69
2018-03-15T10:56:31.178Z,95946.18
2018-03-15T10:59:02.218Z,95952.44
2018-03-15T11:01:39.432Z,95951.16
2018-03-15T11:04:10.467Z,95966.95
2018-03-15T11:06:41.493Z,95953.83
2018-03-15T11:09:13.393Z,95944.56
2018-03-15T11:11:44.429Z,95934.78
2018-03-15T11:14:15.450Z,95924.08
2018-03-15T11:16:46.475Z,95917.27
2018-03-15T11:19:18.319Z,95904.27
2018-03-15T11:21:49.347Z,95910.53
2018-03-15T11:24:20.324Z,95900.11
2018-03-15T11:26:51.286Z,95903.34
2018-03-15T11:29:22.298Z,95911.84
2018-03-15T11:31:53.299Z,95919.51
2018-03-15T11:34:24.402Z,95918.77
2018-03-15T11:36:55.365Z,95917.43
2018-03-15T11:39:26.375Z,95903.02
2018-03-15T11:41:57.357Z,95900.95
2018-03-15T11:44:28.393Z,95896.77
2018-03-15T11:46:59.323Z,95890.16
2018-03-15T11:49:30.336Z,95885.41
2018-03-15T11:52:01.337Z,95879.08
2018-03-15T11:54:32.355Z,95875.55
2018-03-15T11:57:03.355Z,95871.09
2018-03-15T11:59:34.362Z,95873.67
2018-03-15T12:02:05.413Z,95870.77
2018-03-15T12:04:36.419Z,95875.78
2018-03-15T12:07:07.443Z,95866.81
2018-03-15T12:09:38.418Z,95874.17
2018-03-15T12:12:09.395Z,95876.34
2018-03-15T12:14:40.383Z,95867.50
2018-03-15T12:17:11.426Z,95860.80
2018-03-15T12:19:42.403Z,95853.98
2018-03-15T12:22:13.442Z,95849.98
2018-03-15T12:24:44.433Z,95845.60
2018-03-15T12:27:15.449Z,95837.34
2018-03-15T12:29:46.484Z,95840.19
2018-03-15T12:32:17.443Z,95835.03
2018-03-15T12:34:48.424Z,95824.08
2018-03-15T12:37:19.380Z,95820.95
2018-03-15T12:39:50.375Z,95813.41
2018-03-15T12:42:21.377Z,95810.28
2018-03-15T12:44:59.460Z,95805.22
2018-03-15T12:47:30.459Z,95803.09
2018-03-15T12:50:01.471Z,95800.77
2018-03-15T12:52:32.424Z,95790.73
2018-03-15T12:55:03.430Z,95779.64
2018-03-15T12:57:34.412Z,95766.80
2018-03-15T13:00:05.438Z,95778.20
2018-03-15T13:02:36.437Z,95772.13
2018-03-15T13:05:07.421Z,95764.16
2018-03-15T13:07:38.426Z,95759.42
2018-03-15T13:10:09.375Z,95737.64
2018-03-15T13:12:40.376Z,95731.78
2018-03-15T13:15:11.336Z,95721.75
2018-03-15T13:17:42.371Z,95722.10
2018-03-15T13:20:13.340Z,95710.23
2018-03-15T13:22:44.382Z,95704.31
2018-03-15T13:25:15.386Z,95695.23
2018-03-15T13:27:46.372Z,95695.37
2018-03-15T13:30:17.430Z,95695.81
2018-03-15T13:32:48.359Z,95683.70
2018-03-15T13:35:19.458Z,95686.52
2018-03-15T13:37:50.597Z,95672.45
2018-03-15T13:40:21.609Z,95667.91
2018-03-15T13:42:52.612Z,95661.63
2018-03-15T13:45:23.584Z,95660.12
2018-03-15T13:47:54.613Z,95644.20
2018-03-15T13:50:25.566Z,95649.50
2018-03-15T13:52:56.576Z,95646.67
2018-03-15T13:55:27.549Z,95641.23
2018-03-15T13:57:58.554Z,95651.63
2018-03-15T14:00:29.549Z,95651.38
2018-03-15T14:03:00.531Z,95654.72
2018-03-15T14:05:31.567Z,95659.84
2018-03-15T14:08:02.605Z,95640.81
2018-03-15T14:10:33.614Z,95648.92
2018-03-15T14:13:04.663Z,95644.81
2018-03-15T14:15:35.719Z,95641.75
2018-03-15T14:18:06.673Z,95642.94
2018-03-15T14:20:37.674Z,95644.33
2018-03-15T14:23:08.671Z,95642.50
2018-03-15T14:25:39.627Z,95638.81
2018-03-15T14:28:10.644Z,95649.20
2018-03-15T14:30:41.636Z,95649.71
2018-03-15T14:33:12.606Z,95639.03
2018-03-15T14:35:43.586Z,95644.58
2018-03-15T14:38:14.563Z,95638.75
2018-03-15T14:40:45.645Z,95639.84
2018-03-15T14:43:16.632Z,95636.37
2018-03-15T14:45:47.613Z,95629.64
2018-03-15T14:48:18.591Z,95628.95
2018-03-15T14:50:49.586Z,95628.41
2018-03-15T14:53:20.559Z,95620.30
2018-03-15T14:55:51.589Z,95610.93
2018-03-15T14:58:22.574Z,95610.80
2018-03-15T15:00:53.571Z,95607.53
2018-03-15T15:03:24.604Z,95604.05
2018-03-15T15:05:55.596Z,95600.12
2018-03-15T15:08:26.602Z,95597.59
2018-03-15T15:10:57.568Z,95602.95
2018-03-15T15:13:28.544Z,95604.93
2018-03-15T15:15:59.521Z,95601.16
2018-03-15T15:18:30.505Z,95602.95
2018-03-15T15:21:01.484Z,95604.41
2018-03-15T15:23:32.508Z,95603.56
2018-03-15T15:26:03.527Z,95601.54
2018-03-15T15:28:34.484Z,95596.23
2018-03-15T15:31:05.467Z,95594.36
2018-03-15T15:33:36.478Z,95597.28
2018-03-15T15:36:07.526Z,95594.63
2018-03-15T15:38:38.516Z,95587.62
2018-03-15T15:41:09.543Z,95588.48
2018-03-15T15:43:40.468Z,95588.25
2018-03-15T15:46:11.456Z,95595.27
2018-03-15T15:48:42.501Z,95591.16
2018-03-15T15:51:13.494Z,95596.84
2018-03-15T15:53:44.471Z,95595.03
2018-03-15T15:56:15.409Z,95588.25
2018-03-15T15:58:46.471Z,95600.88
2018-03-15T16:01:17.473Z,95603.17
2018-03-15T16:03:48.441Z,95595.69
2018-03-15T16:06:19.437Z,95593.08
2018-03-15T16:08:50.453Z,95593.04
2018-03-15T16:11:21.417Z,95596.81
2018-03-15T16:13:52.422Z,95595.08
2018-03-15T16:16:23.419Z,95592.73
2018-03-15T16:18:54.415Z,95594.08
2018-03-15T16:21:25.430Z,95595.14
2018-03-15T16:23:56.458Z,95607.56
2018-03-15T16:26:27.441Z,95603.87
2018-03-15T16:28:58.488Z,95604.83
2018-03-15T16:31:29.475Z,95603.56
2018-03-15T16:34:00.495Z,95609.89
2018-03-15T16:36:31.458Z,95611.27
2018-03-15T16:39:02.448Z,95598.16
2018-03-15T16:41:33.475Z,95614.12
2018-03-15T16:44:04.506Z,95617.28
2018-03-15T16:46:35.484Z,95624.44
2018-03-15T16:49:06.497Z,95619.20
2018-03-15T16:51:37.448Z,95619.05
2018-03-15T16:54:08.408Z,95618.45
2018-03-15T16:56:39.403Z,95620.89
2018-03-15T16:59:10.401Z,95620.04
2018-03-15T17:01:41.361Z,95615.56
2018-03-15T17:04:12.341Z,95612.11
2018-03-15T17:06:43.796Z,95611.25
2018-03-15T17:09:14.848Z,95609.28
2018-03-15T17:11:45.848Z,95604.17
2018-03-15T17:14:16.819Z,95610.20
2018-03-15T17:16:47.822Z,95607.22
2018-03-15T17:19:18.862Z,95616.11
2018-03-15T17:21:49.851Z,95613.55
2018-03-15T17:24:20.905Z,95610.05
2018-03-15T17:26:51.916Z,95622.91
2018-03-15T17:29:22.989Z,95630.28
2018-03-15T17:31:53.973Z,95627.06
2018-03-15T17:34:25.064Z,95632.97
2018-03-15T17:36:56.056Z,95634.22
2018-03-15T17:39:27.018Z,95635.09
2018-03-15T17:41:58.026Z,95627.58
2018-03-15T17:44:29.009Z,95635.34
2018-03-15T17:47:00.026Z,95629.29
2018-03-15T17:49:31.024Z,95633.55
2018-03-15T17:52:02.028Z,95631.17
2018-03-15T17:54:33.063Z,95634.15
2018-03-15T17:57:04.053Z,95632.59
2018-03-15T17:59:35.024Z,95626.17
2018-03-15T18:02:06.046Z,95623.83
2018-03-15T18:04:37.036Z,95630.44
2018-03-15T18:07:08.039Z,95637.01
2018-03-15T18:09:39.074Z,95627.06
2018-03-15T18:12:10.057Z,95625.89
2018-03-15T18:14:41.105Z,95627.70
2018-03-15T18:17:12.106Z,95634.69
2018-03-15T18:19:43.118Z,95632.53
2018-03-15T18:22:14.152Z,95634.00
2018-03-15T18:24:45.139Z,95638.39
2018-03-15T18:27:16.165Z,95634.36
2018-03-15T18:29:47.316Z,95623.38
2018-03-15T18:32:18.318Z,95627.48
2018-03-15T18:34:49.307Z,95623.88
2018-03-15T18:37:20.300Z,95614.23
2018-03-15T18:39:51.304Z,95604.00
2018-03-15T18:42:22.336Z,95595.20
2018-03-15T18:44:53.325Z,95588.56
2018-03-15T18:47:24.372Z,95578.60
2018-03-15T18:49:55.396Z,95569.80
2018-03-15T18:52:26.397Z,95590.34
2018-03-15T18:54:57.416Z,95600.17
2018-03-15T18:57:28.453Z,95592.66
2018-03-15T18:59:59.463Z,95608.49
2018-03-15T19:02:30.491Z,95592.23
2018-03-15T19:05:01.496Z,95603.58
2018-03-15T19:07:32.481Z,95627.38
2018-03-15T19:10:03.526Z,95647.80
2018-03-15T19:12:34.548Z,95650.11
2018-03-15T19:15:05.552Z,95658.55
2018-03-15T19:17:36.571Z,95656.05
2018-03-15T19:20:07.577Z,95635.52
2018-03-15T19:22:38.531Z,95615.00
2018-03-15T19:25:09.504Z,95634.34
2018-03-15T19:27:40.477Z,95638.82
2018-03-15T19:30:11.509Z,95629.37
2018-03-15T19:32:42.518Z,95622.61
2018-03-15T19:35:13.530Z,95629.46
2018-03-15T19:37:44.507Z,95633.92
2018-03-15T19:40:15.565Z,95651.06
2018-03-15T19:42:46.523Z,95660.27
2018-03-15T19:45:18.104Z,95662.13
2018-03-15T19:47:49.107Z,95675.02
2018-03-15T19:50:20.103Z,95679.73
2018-03-15T19:52:51.128Z,95667.78
2018-03-15T19:55:22.984Z,95672.36
2018-03-15T19:57:54.224Z,95660.34
2018-03-15T20:00:25.278Z,95652.05
2018-03-15T20:02:56.317Z,95654.58
2018-03-15T20:05:27.308Z,95675.20
2018-03-15T20:07:59.121Z,95696.59
2018-03-15T20:10:30.150Z,95682.02
2018-03-15T20:13:01.125Z,95672.80
2018-03-15T20:15:38.293Z,95678.98
2018-03-15T20:18:09.271Z,95675.78
2018-03-15T20:20:40.286Z,95681.53
2018-03-15T20:23:17.259Z,95680.64
2018-03-15T20:25:48.272Z,95685.89
2018-03-15T20:28:25.250Z,95683.48
2018-03-15T20:30:56.285Z,95678.13
2018-03-15T20:33:33.380Z,95680.51
2018-03-15T20:36:04.428Z,95682.41
2018-03-15T20:38:35.409Z,95688.70
2018-03-15T20:41:12.560Z,95697.98
2018-03-15T20:43:43.578Z,95697.23
2018-03-15T20:46:20.607Z,95699.30
2018-03-15T20:48:57.652Z,95697.03
2018-03-15T20:54:23.507Z,95705.84
2018-03-15T20:56:54.530Z,95702.95
2018-03-15T20:59:25.536Z,95712.38
2018-03-15T21:01:56.532Z,95731.63
2018-03-15T21:04:27.481Z,95742.73
2018-03-15T21:06:58.458Z,95734.75
2018-03-15T21:09:29.420Z,95736.24
2018-03-15T21:12:06.408Z,95751.63
2018-03-15T21:14:37.392Z,95753.84
2018-03-15T21:17:08.333Z,95748.47
2018-03-15T21:19:39.297Z,95750.91
2018-03-15T21:22:10.278Z,95751.84
2018-03-15T21:24:41.218Z,95751.50
2018-03-15T21:27:12.234Z,95751.16
2018-03-15T21:29:43.182Z,95746.60
2018-03-15T21:32:14.158Z,95767.81
2018-03-15T21:34:45.101Z,95777.60
2018-03-15T21:37:16.090Z,95779.88
2018-03-15T21:39:47.037Z,95781.58
2018-03-15T21:42:17.983Z,95790.23
2018-03-15T21:44:48.957Z,95797.28
2018-03-15T21:47:19.929Z,95794.53
2018-03-15T21:49:50.909Z,95801.70
2018-03-15T21:52:21.856Z,95805.64
2018-03-15T21:54:52.842Z,95812.66
2018-03-15T21:57:23.798Z,95813.08
2018-03-15T21:59:54.754Z,95815.31
2018-03-15T22:02:25.693Z,95818.14
2018-03-15T22:04:56.703Z,95821.29
2018-03-15T22:07:27.614Z,95824.59
2018-03-15T22:09:58.573Z,95823.17
2018-03-15T22:12:29.571Z,95825.89
2018-03-15T22:15:00.518Z,95822.07
2018-03-15T22:17:31.463Z,95814.03
2018-03-15T22:20:02.446Z,95820.95
2018-03-15T22:22:33.394Z,95832.25
2018-03-15T22:25:04.405Z,95824.73
2018-03-15T22:27:35.352Z,95817.66
2018-03-15T22:30:06.322Z,95815.90
2018-03-15T22:32:37.262Z,95824.91
2018-03-15T22:35:08.248Z,95833.14
2018-03-15T22:37:39.214Z,95840.25
2018-03-15T22:40:10.168Z,95839.60
2018-03-15T22:42:41.125Z,95841.70
2018-03-15T22:45:12.090Z,95838.82
2018-03-15T22:47:43.058Z,95843.20
2018-03-15T22:50:14.023Z,95848.79
2018-03-15T22:52:44.982Z,95852.22
2018-03-15T22:55:15.945Z,95855.37
2018-03-15T22:57:46.889Z,95851.83
2018-03-15T23:00:17.854Z,95848.84
2018-03-15T23:02:48.821Z,95837.47
2018-03-15T23:05:19.766Z,95847.69
2018-03-15T23:07:50.726Z,95855.23
2018-03-15T23:10:21.677Z,95860.84
2018-03-15T23:12:52.639Z,95865.64
2018-03-15T23:15:23.593Z,95856.63
2018-03-15T23:17:54.545Z,95870.73
2018-03-15T23:20:25.490Z,95877.75
2018-03-15T23:22:56.454Z,95867.78
2018-03-15T23:25:27.401Z,95864.66
2018-03-15T23:27:58.346Z,95860.44
2018-03-15T23:30:29.317Z,95865.39
2018-03-15T23:33:00.257Z,95858.27
2018-03-15T23:35:31.229Z,95867.75
2018-03-15T23:38:02.179Z,95877.27
2018-03-15T23:40:33.166Z,95878.95
2018-03-15T23:43:04.106Z,95880.52
2018-03-15T23:45:35.094Z,95892.95
2018-03-15T23:48:06.026Z,95886.31
2018-03-15T23:50:36.992Z,95886.84
2018-03-15T23:53:07.982Z,95888.71
2018-03-15T23:55:38.932Z,95891.70
2018-03-15T23:58:09.914Z,95888.59
